Time;durP1;ratioP1;P1;durP2;ratioP2;P2;SDS_P1;SDS_P2;PMS_P1;PMS_P2;Temp;Humidity;BMP_temperature;BMP_pressure;BME280_temperature;BME280_humidity;BME280_pressure;Samples;Min_cycle;Max_cycle;Signal;HPM_P1;HPM_P2
2022/09/16 00:00:43;;;;;;;3.40;1.50;;;;;22.00;99910.00;;;;2077832;28;20249;-53
2022/09/16 00:01:43;;;;;;;2.25;1.35;;;;;22.00;99913.00;;;;2069796;28;20229;-52
2022/09/16 00:02:44;;;;;;;2.37;1.53;;;;;22.00;99914.00;;;;2070492;28;20712;-53
2022/09/16 00:03:44;;;;;;;3.27;1.73;;;;;22.00;99915.00;;;;2070799;28;20259;-52
2022/09/16 00:04:44;;;;;;;2.77;1.50;;;;;22.00;99919.00;;;;2069658;28;20214;-52
2022/09/16 00:05:47;;;;;;;2.67;1.70;;;;;22.00;99916.00;;;;2070820;28;20206;-53
2022/09/16 00:06:47;;;;;;;2.67;1.63;;;;;21.90;99908.00;;;;2071300;28;20293;-52
2022/09/16 00:07:47;;;;;;;2.70;1.57;;;;;21.90;99913.00;;;;2070621;28;20222;-53
2022/09/16 00:08:48;;;;;;;2.93;1.70;;;;;21.90;99909.00;;;;2070386;28;20640;-52
2022/09/16 00:09:48;;;;;;;3.03;1.27;;;;;21.90;99908.00;;;;2072245;28;20577;-52
2022/09/16 00:10:49;;;;;;;1.83;1.27;;;;;22.00;99916.00;;;;2072277;28;20214;-52
2022/09/16 00:11:49;;;;;;;1.90;1.30;;;;;21.90;99914.00;;;;2072244;28;20269;-52
2022/09/16 00:12:49;;;;;;;1.50;1.03;;;;;21.90;99915.00;;;;2071982;28;20208;-52
2022/09/16 00:13:50;;;;;;;2.20;1.60;;;;;21.90;99912.00;;;;2072363;28;20202;-52
2022/09/16 00:14:53;;;;;;;3.80;1.50;;;;;21.90;99910.00;;;;2072134;28;20276;-52
2022/09/16 00:15:54;;;;;;;2.38;1.20;;;;;21.90;99903.00;;;;2071070;28;20206;-52
2022/09/16 00:16:54;;;;;;;1.60;1.10;;;;;21.90;99910.00;;;;2071445;28;20256;-53
2022/09/16 00:17:54;;;;;;;2.37;1.40;;;;;21.90;99942.00;;;;2071369;28;20221;-52
2022/09/16 00:18:56;;;;;;;2.57;1.30;;;;;22.00;99901.00;;;;2072197;28;20666;-52
2022/09/16 00:19:57;;;;;;;2.28;1.27;;;;;22.00;99902.00;;;;2071330;28;20293;-52
2022/09/16 00:20:57;;;;;;;2.30;1.20;;;;;21.90;99901.00;;;;2071078;28;20206;-52
2022/09/16 00:21:57;;;;;;;2.20;1.30;;;;;21.90;99904.00;;;;2071883;28;20206;-52
2022/09/16 00:22:58;;;;;;;2.60;1.17;;;;;21.90;99912.00;;;;2071920;28;20666;-52
2022/09/16 00:23:58;;;;;;;2.07;1.10;;;;;21.90;99913.00;;;;2072001;28;20209;-53
2022/09/16 00:24:58;;;;;;;3.97;1.10;;;;;22.00;99915.00;;;;2071795;28;20206;-52
2022/09/16 00:25:59;;;;;;;2.00;1.17;;;;;21.90;99913.00;;;;2071900;28;20333;-52
2022/09/16 00:26:59;;;;;;;3.17;1.33;;;;;21.90;99915.00;;;;2071860;28;20230;-52
2022/09/16 00:27:59;;;;;;;1.93;1.20;;;;;21.90;99911.00;;;;2071086;28;20210;-52
2022/09/16 00:29:00;;;;;;;2.20;1.30;;;;;21.90;99914.00;;;;2071887;28;20221;-53
2022/09/16 00:30:00;;;;;;;2.47;1.50;;;;;21.90;99906.00;;;;2072058;28;20214;-52
2022/09/16 00:31:01;;;;;;;2.20;1.17;;;;;21.90;99909.00;;;;2071995;28;20300;-52
2022/09/16 00:32:01;;;;;;;2.63;1.40;;;;;22.00;99906.00;;;;2072025;28;20218;-52
2022/09/16 00:33:01;;;;;;;3.07;0.90;;;;;21.90;99906.00;;;;2072130;28;20225;-52
2022/09/16 00:34:02;;;;;;;1.63;0.97;;;;;21.90;99913.00;;;;2071895;28;20213;-52
2022/09/16 00:35:02;;;;;;;3.10;1.40;;;;;21.90;99906.00;;;;2071968;28;20555;-52
2022/09/16 00:36:04;;;;;;;2.87;1.33;;;;;21.90;99907.00;;;;2070549;28;20234;-52
2022/09/16 00:37:07;;;;;;;2.00;1.10;;;;;21.90;99906.00;;;;2071079;28;20218;-52
2022/09/16 00:38:07;;;;;;;2.45;1.10;;;;;21.90;99905.00;;;;2074636;28;20221;-53
2022/09/16 00:39:07;;;;;;;3.90;1.07;;;;;21.90;99906.00;;;;2071861;28;20214;-53
2022/09/16 00:40:09;;;;;;;1.87;1.20;;;;;21.90;99914.00;;;;2071972;28;20248;-52
2022/09/16 00:41:15;;;;;;;2.40;1.27;;;;;21.90;99893.00;;;;2071890;28;20206;-53
2022/09/16 00:42:16;;;;;;;4.35;1.48;;;;;21.90;99912.00;;;;2070938;28;20218;-53
2022/09/16 00:43:17;;;;;;;2.55;1.13;;;;;21.90;99913.00;;;;2071032;28;20308;-53
2022/09/16 00:44:53;;;;;;;2.57;1.40;;;;;21.90;99906.00;;;;2071305;28;20705;-53
2022/09/16 00:46:01;;;;;;;2.72;1.40;;;;;21.90;99911.00;;;;2077340;28;20757;-53
2022/09/16 00:47:01;;;;;;;2.40;1.40;;;;;21.90;99916.00;;;;2071131;28;20206;-52
2022/09/16 00:48:05;;;;;;;1.40;1.10;;;;;21.90;99907.00;;;;2070336;28;21003;-52
2022/09/16 00:49:11;;;;;;;2.03;1.20;;;;;22.00;99908.00;;;;2079264;28;20226;-52
2022/09/16 00:50:27;;;;;;;2.25;1.23;;;;;22.00;99914.00;;;;2079234;28;20591;-52
2022/09/16 00:51:27;;;;;;;1.63;0.90;;;;;21.90;99910.00;;;;2078150;28;20704;-53
2022/09/16 00:52:28;;;;;;;1.70;1.07;;;;;21.90;99911.00;;;;2078946;28;20214;-52
2022/09/16 00:53:32;;;;;;;2.60;1.27;;;;;21.90;99911.00;;;;2079366;28;20269;-53
2022/09/16 00:54:36;;;;;;;2.22;1.10;;;;;21.90;99901.00;;;;2064875;28;20218;-52
2022/09/16 00:55:36;;;;;;;2.47;1.10;;;;;21.90;99906.00;;;;2063396;28;20225;-52
2022/09/16 00:56:38;;;;;;;1.37;0.93;;;;;21.90;99912.00;;;;2068191;28;20601;-52
2022/09/16 00:57:38;;;;;;;1.85;1.25;;;;;21.90;99913.00;;;;2069898;28;20241;-52
2022/09/16 00:58:46;;;;;;;2.17;0.97;;;;;21.90;99898.00;;;;2071270;28;20222;-52
2022/09/16 00:59:48;;;;;;;1.98;1.00;;;;;21.90;99930.00;;;;2071077;28;20247;-53
2022/09/16 01:00:49;;;;;;;3.88;1.10;;;;;21.90;99909.00;;;;2071462;28;20232;-54
2022/09/16 01:01:49;;;;;;;1.70;1.00;;;;;21.90;99911.00;;;;2079212;28;20220;-53
2022/09/16 01:02:50;;;;;;;2.20;0.97;;;;;21.90;99915.00;;;;2078887;28;20214;-53
2022/09/16 01:03:52;;;;;;;1.63;0.97;;;;;21.90;99930.00;;;;2079872;28;20263;-53
2022/09/16 01:04:55;;;;;;;2.40;0.98;;;;;21.90;99905.00;;;;2078950;28;20267;-54
2022/09/16 01:05:56;;;;;;;3.38;1.30;;;;;21.90;99917.00;;;;2070983;28;20211;-53
2022/09/16 01:06:56;;;;;;;3.37;1.03;;;;;21.90;99918.00;;;;2070793;28;20725;-52
2022/09/16 01:07:57;;;;;;;1.93;1.13;;;;;21.90;99913.00;;;;2078406;28;20224;-52
2022/09/16 01:08:57;;;;;;;2.07;1.10;;;;;21.90;99921.00;;;;2079889;28;20210;-52
2022/09/16 01:09:58;;;;;;;2.57;1.10;;;;;21.90;99917.00;;;;2070858;28;20238;-53
2022/09/16 01:10:58;;;;;;;2.60;1.30;;;;;21.90;99894.00;;;;2071231;28;20210;-52
2022/09/16 01:11:59;;;;;;;3.23;1.10;;;;;21.90;99922.00;;;;2070689;28;20210;-53
2022/09/16 01:13:03;;;;;;;3.10;1.30;;;;;21.90;99920.00;;;;2070803;28;20729;-53
2022/09/16 01:15:24;;;;;;;2.10;0.95;;;;;21.90;99920.00;;;;2078552;28;20303;-53
2022/09/16 01:16:30;;;;;;;2.28;1.13;;;;;21.90;99907.00;;;;2065306;28;20589;-52
2022/09/16 01:17:40;;;;;;;2.13;1.00;;;;;21.90;99908.00;;;;2062080;28;20218;-52
2022/09/16 01:19:02;;;;;;;1.83;0.75;;;;;21.90;99915.00;;;;2076247;28;20232;-52
2022/09/16 01:20:03;;;;;;;1.60;0.80;;;;;21.80;99903.00;;;;2079551;28;20202;-52
2022/09/16 01:21:15;;;;;;;2.10;1.02;;;;;21.90;99912.00;;;;2079837;28;20237;-53
2022/09/16 01:22:27;;;;;;;2.63;1.17;;;;;21.90;99913.00;;;;2079680;28;20229;-53
2022/09/16 01:23:52;;;;;;;1.88;1.05;;;;;21.90;99915.00;;;;2079456;28;20213;-53
2022/09/16 01:24:59;;;;;;;1.85;1.00;;;;;21.90;99910.00;;;;2079045;28;20213;-54
2022/09/16 01:26:15;;;;;;;1.67;1.00;;;;;21.80;99915.00;;;;2078833;28;20731;-53
2022/09/16 01:27:56;;;;;;;1.95;0.80;;;;;21.80;99918.00;;;;2078475;28;20681;-53
2022/09/16 01:29:26;;;;;;;1.65;0.80;;;;;21.80;99924.00;;;;2061628;28;20232;-54
2022/09/16 01:30:48;;;;;;;2.47;0.85;;;;;21.90;99902.00;;;;2078858;28;20302;-54
2022/09/16 01:31:57;;;;;;;2.25;0.90;;;;;21.90;99918.00;;;;2059851;28;20305;-52
2022/09/16 01:33:00;;;;;;;1.17;0.80;;;;;21.80;99922.00;;;;2065678;28;20222;-53
2022/09/16 01:34:14;;;;;;;1.95;1.20;;;;;21.80;99928.00;;;;2079053;28;20217;-52
2022/09/16 01:35:22;;;;;;;2.20;1.10;;;;;21.80;99919.00;;;;2078858;28;20685;-53
2022/09/16 01:37:00;;;;;;;2.63;0.90;;;;;21.80;99913.00;;;;2072658;28;20221;-54
2022/09/16 01:38:15;;;;;;;2.65;1.40;;;;;21.80;99923.00;;;;2057750;28;20215;-53
2022/09/16 01:39:27;;;;;;;3.05;1.33;;;;;21.80;99914.00;;;;2064281;28;20673;-53
2022/09/16 01:40:55;;;;;;;2.28;0.75;;;;;21.80;99914.00;;;;2078494;28;20728;-54
2022/09/16 01:42:14;;;;;;;2.50;0.93;;;;;21.90;99922.00;;;;2075874;28;20220;-53
2022/09/16 01:43:20;;;;;;;2.08;1.00;;;;;21.80;99900.00;;;;2070707;28;20206;-52
2022/09/16 01:44:26;;;;;;;1.83;1.00;;;;;21.90;99915.00;;;;2072737;28;20218;-53
2022/09/16 01:45:49;;;;;;;2.47;0.98;;;;;21.90;99912.00;;;;2061474;28;20218;-53
2022/09/16 01:47:09;;;;;;;1.98;0.73;;;;;21.80;99889.00;;;;2057082;28;20249;-52
2022/09/16 01:48:23;;;;;;;2.90;1.30;;;;;21.80;99907.00;;;;2069509;28;20206;-52
2022/09/16 01:49:45;;;;;;;1.55;0.80;;;;;21.80;99908.00;;;;2065993;28;20225;-53
2022/09/16 01:51:05;;;;;;;1.60;0.90;;;;;21.80;99918.00;;;;2070672;28;20221;-53
2022/09/16 01:52:36;;;;;;;1.70;0.98;;;;;21.80;99911.00;;;;2070561;28;20674;-53
2022/09/16 01:53:53;;;;;;;1.65;0.80;;;;;21.80;99915.00;;;;2061934;28;20215;-52
2022/09/16 01:55:07;;;;;;;2.78;0.80;;;;;21.80;99907.00;;;;2072772;28;20222;-53
2022/09/16 01:56:26;;;;;;;4.18;1.15;;;;;21.80;99915.00;;;;2072243;28;20247;-52
2022/09/16 01:57:34;;;;;;;2.10;1.08;;;;;21.80;99903.00;;;;2072027;28;20250;-54
2022/09/16 01:58:38;;;;;;;1.80;0.95;;;;;21.80;99905.00;;;;2071499;28;20241;-52
2022/09/16 01:59:51;;;;;;;2.25;0.90;;;;;21.80;99909.00;;;;2075390;28;20262;-52
2022/09/16 02:00:54;;;;;;;1.13;0.90;;;;;21.80;99914.00;;;;2078564;28;20237;-52
2022/09/16 02:01:58;;;;;;;2.08;1.08;;;;;21.80;99919.00;;;;2071013;28;20214;-52
2022/09/16 02:03:06;;;;;;;1.90;0.60;;;;;21.80;99886.00;;;;2070547;28;20222;-53
2022/09/16 02:04:16;;;;;;;2.20;1.00;;;;;21.80;99884.00;;;;2055731;28;20207;-52
2022/09/16 02:05:40;;;;;;;1.98;0.80;;;;;21.80;99913.00;;;;2064895;28;20278;-52
2022/09/16 02:06:42;;;;;;;2.05;0.82;;;;;21.80;99912.00;;;;2070352;28;20237;-52
2022/09/16 02:07:46;;;;;;;2.30;1.00;;;;;21.80;99909.00;;;;2066541;28;20228;-52
2022/09/16 02:08:49;;;;;;;2.17;1.00;;;;;21.80;99910.00;;;;2070667;28;20217;-52
2022/09/16 02:09:55;;;;;;;1.48;0.70;;;;;21.80;99907.00;;;;2077764;28;20233;-52
2022/09/16 02:10:58;;;;;;;3.17;0.90;;;;;21.80;99883.00;;;;2078595;28;20214;-52
2022/09/16 02:12:04;;;;;;;2.17;0.93;;;;;21.80;99904.00;;;;2070260;28;20224;-52
2022/09/16 02:13:09;;;;;;;2.30;0.80;;;;;21.80;99907.00;;;;2071399;28;20233;-53
2022/09/16 02:14:15;;;;;;;1.77;0.75;;;;;21.80;99904.00;;;;2061718;28;20211;-53
2022/09/16 02:15:20;;;;;;;2.35;0.73;;;;;21.80;99879.00;;;;2067127;28;20223;-52
2022/09/16 02:16:25;;;;;;;1.58;0.77;;;;;21.80;99902.00;;;;2062281;28;20226;-52
2022/09/16 02:17:26;;;;;;;1.85;0.85;;;;;21.80;99889.00;;;;2063698;28;20234;-53
2022/09/16 02:18:28;;;;;;;1.10;0.77;;;;;21.80;99905.00;;;;2062154;28;20218;-53
2022/09/16 02:19:42;;;;;;;1.02;0.50;;;;;21.80;99903.00;;;;2053963;28;20302;-55
2022/09/16 02:20:44;;;;;;;1.00;0.70;;;;;21.80;99894.00;;;;2050293;28;20219;-52
2022/09/16 02:21:44;;;;;;;1.58;0.75;;;;;21.80;99907.00;;;;2070459;28;20219;-53
2022/09/16 02:22:49;;;;;;;2.23;0.80;;;;;21.30;99891.00;;;;2078433;28;20210;-53
2022/09/16 02:23:52;;;;;;;2.58;0.88;;;;;21.80;99914.00;;;;2062258;28;20222;-52
2022/09/16 02:24:52;;;;;;;1.40;0.93;;;;;21.80;99898.00;;;;2054513;28;20262;-53
2022/09/16 02:25:53;;;;;;;2.60;0.83;;;;;21.80;99845.00;;;;2070474;28;20730;-52
2022/09/16 02:27:01;;;;;;;2.28;0.90;;;;;21.80;99894.00;;;;2070389;28;20740;-52
2022/09/16 02:28:03;;;;;;;4.05;1.20;;;;;21.80;99899.00;;;;2067502;28;20310;-52
2022/09/16 02:29:09;;;;;;;2.83;0.70;;;;;21.70;99907.00;;;;2069918;28;20301;-52
2022/09/16 02:30:15;;;;;;;2.97;0.82;;;;;21.80;99900.00;;;;2062807;28;20215;-52
2022/09/16 02:31:15;;;;;;;1.33;0.90;;;;;21.80;99900.00;;;;2056021;28;20245;-52
2022/09/16 02:32:16;;;;;;;1.03;0.60;;;;;21.80;99896.00;;;;2059989;28;20266;-53
2022/09/16 02:33:16;;;;;;;2.10;0.83;;;;;21.80;99903.00;;;;2061943;28;20254;-53
2022/09/16 02:34:25;;;;;;;2.23;0.70;;;;;21.80;99903.00;;;;2066902;28;20241;-53
2022/09/16 02:35:25;;;;;;;1.17;0.63;;;;;21.80;99901.00;;;;2064705;28;20982;-52
2022/09/16 02:36:26;;;;;;;1.87;0.80;;;;;21.80;99903.00;;;;2070485;28;20221;-52
2022/09/16 02:37:31;;;;;;;2.30;0.70;;;;;21.80;99890.00;;;;2069470;28;20713;-52
2022/09/16 02:38:35;;;;;;;1.75;0.80;;;;;21.80;99900.00;;;;2062046;28;20222;-53
2022/09/16 02:39:37;;;;;;;1.77;0.80;;;;;21.80;99899.00;;;;2055359;28;20308;-53
2022/09/16 02:40:42;;;;;;;1.83;0.70;;;;;21.80;99899.00;;;;2067765;28;20254;-53
2022/09/16 02:41:42;;;;;;;2.05;0.82;;;;;21.80;99894.00;;;;2070524;28;20287;-52
2022/09/16 02:42:43;;;;;;;1.40;0.60;;;;;21.80;99897.00;;;;2062325;28;20215;-53
2022/09/16 02:43:44;;;;;;;2.50;0.87;;;;;21.80;99898.00;;;;2070384;28;20221;-52
2022/09/16 02:44:44;;;;;;;1.38;0.60;;;;;21.80;99907.00;;;;2068692;28;20214;-52
2022/09/16 02:45:59;;;;;;;3.00;0.97;;;;;21.80;99896.00;;;;2078340;28;20241;-53
2022/09/16 02:47:10;;;;;;;1.15;0.63;;;;;21.80;99900.00;;;;2070326;28;20209;-53
2022/09/16 02:48:31;;;;;;;1.63;0.50;;;;;21.70;99901.00;;;;2071518;28;20706;-52
2022/09/16 02:49:40;;;;;;;2.20;0.93;;;;;21.70;99886.00;;;;2078362;28;20275;-52
2022/09/16 02:50:46;;;;;;;2.50;0.55;;;;;21.80;99875.00;;;;2078389;28;20921;-52
2022/09/16 02:52:08;;;;;;;1.70;0.60;;;;;21.70;99901.00;;;;2070151;28;20234;-53
2022/09/16 02:53:26;;;;;;;2.55;0.70;;;;;21.70;99895.00;;;;2072182;28;20213;-52
2022/09/16 02:54:37;;;;;;;1.67;0.80;;;;;21.70;99888.00;;;;2078084;28;20221;-52
2022/09/16 02:55:45;;;;;;;1.70;0.70;;;;;21.80;99897.00;;;;2060754;28;20237;-53
2022/09/16 02:56:45;;;;;;;2.67;0.80;;;;;21.80;99892.00;;;;2077420;28;20210;-53
2022/09/16 02:57:45;;;;;;;2.43;0.80;;;;;21.80;99882.00;;;;2076877;28;20225;-52
2022/09/16 02:58:46;;;;;;;1.50;0.60;;;;;21.70;99890.00;;;;2077814;28;20218;-52
2022/09/16 02:59:46;;;;;;;1.43;0.70;;;;;21.70;99902.00;;;;2078251;28;21086;-53
2022/09/16 03:00:49;;;;;;;2.67;0.57;;;;;21.70;99907.00;;;;2069189;28;20696;-53
2022/09/16 03:01:49;;;;;;;1.75;0.77;;;;;21.80;99892.00;;;;2069626;28;20237;-52
2022/09/16 03:02:50;;;;;;;1.57;0.70;;;;;21.80;99891.00;;;;2077529;28;20238;-54
2022/09/16 03:03:53;;;;;;;2.20;0.60;;;;;21.80;99948.00;;;;2078532;28;20212;-52
2022/09/16 03:04:53;;;;;;;1.30;0.60;;;;;21.70;99890.00;;;;2077999;28;20716;-52
2022/09/16 03:06:02;;;;;;;2.47;0.70;;;;;21.70;99887.00;;;;2078617;28;20213;-53
2022/09/16 03:07:03;;;;;;;2.70;0.65;;;;;21.70;99886.00;;;;2077891;28;20237;-53
2022/09/16 03:08:05;;;;;;;1.42;0.70;;;;;21.70;99884.00;;;;2060922;28;20252;-52
2022/09/16 03:09:08;;;;;;;1.35;0.70;;;;;21.70;99855.00;;;;2066930;28;20698;-57
2022/09/16 03:10:09;;;;;;;3.20;0.60;;;;;21.70;99890.00;;;;2061212;28;20266;-53
2022/09/16 03:11:35;;;;;;;7.03;1.10;;;;;21.70;99872.00;;;;2066152;28;20218;-53
2022/09/16 03:13:00;;;;;;;1.85;0.75;;;;;21.70;99860.00;;;;2077307;28;20288;-52
2022/09/16 03:14:18;;;;;;;1.80;0.70;;;;;21.70;99879.00;;;;2061698;28;20248;-52
2022/09/16 03:15:25;;;;;;;1.00;0.60;;;;;21.20;99865.00;;;;2066470;28;20222;-53
2022/09/16 03:16:49;;;;;;;2.80;1.00;;;;;21.80;99888.00;;;;2069555;28;20211;-52
2022/09/16 03:18:07;;;;;;;2.55;0.90;;;;;21.70;99888.00;;;;2075953;28;20302;-53
2022/09/16 03:19:39;;;;;;;1.67;0.60;;;;;21.80;99878.00;;;;2077722;28;20221;-54
2022/09/16 03:21:15;;;;;;;1.90;0.80;;;;;21.70;99880.00;;;;2077805;28;20704;-54
2022/09/16 03:22:43;;;;;;;1.35;0.68;;;;;21.70;99884.00;;;;2077716;28;20692;-52
2022/09/16 03:24:22;;;;;;;1.42;0.50;;;;;21.70;99881.00;;;;2077030;28;20360;-52
2022/09/16 03:25:43;;;;;;;2.17;0.75;;;;;21.70;99872.00;;;;2068057;28;20600;-53
2022/09/16 03:27:06;;;;;;;3.83;0.88;;;;;21.70;99882.00;;;;2067849;28;20233;-53
2022/09/16 03:28:10;;;;;;;3.10;0.80;;;;;21.70;99857.00;;;;2065249;28;20222;-52
2022/09/16 03:29:21;;;;;;;1.33;0.70;;;;;21.70;99868.00;;;;2061052;28;20322;-53
2022/09/16 03:30:22;;;;;;;3.60;1.00;;;;;21.70;99865.00;;;;2064524;28;20306;-52
2022/09/16 03:31:59;;;;;;;2.07;0.70;;;;;21.70;99876.00;;;;2074204;28;20202;-52
2022/09/16 03:33:04;;;;;;;2.00;0.80;;;;;21.70;99878.00;;;;2069589;28;21225;-53
2022/09/16 03:34:29;;;;;;;1.35;0.60;;;;;21.70;99878.00;;;;2061829;28;20229;-52
2022/09/16 03:35:37;;;;;;;4.35;0.90;;;;;21.70;99881.00;;;;2072978;28;20223;-53
2022/09/16 03:36:43;;;;;;;2.50;0.80;;;;;21.70;99868.00;;;;2078043;28;20641;-53
2022/09/16 03:37:44;;;;;;;2.13;0.63;;;;;21.70;99878.00;;;;2076966;28;21239;-52
2022/09/16 03:38:44;;;;;;;2.40;0.80;;;;;21.70;99884.00;;;;2061780;28;20218;-53
2022/09/16 03:39:49;;;;;;;1.40;0.67;;;;;21.70;99736.00;;;;2070042;28;21280;-52
2022/09/16 03:40:49;;;;;;;1.80;0.63;;;;;21.70;99875.00;;;;2068616;28;20318;-52
2022/09/16 03:41:50;;;;;;;2.10;0.73;;;;;21.70;99872.00;;;;2069789;28;20213;-52
2022/09/16 03:42:50;;;;;;;2.27;1.20;;;;;21.70;99872.00;;;;2077945;28;20205;-53
2022/09/16 03:43:55;;;;;;;1.50;0.70;;;;;21.70;99872.00;;;;2061877;28;20249;-53
2022/09/16 03:44:56;;;;;;;2.17;0.60;;;;;21.70;99875.00;;;;2065873;28;20217;-52
2022/09/16 03:45:56;;;;;;;1.70;0.80;;;;;21.70;99868.00;;;;2070587;28;20210;-53
2022/09/16 03:46:56;;;;;;;1.23;0.80;;;;;21.70;99870.00;;;;2070590;28;20458;-53
2022/09/16 03:47:57;;;;;;;1.77;0.77;;;;;21.70;99865.00;;;;2069636;28;20213;-53
2022/09/16 03:48:57;;;;;;;2.77;0.80;;;;;21.70;99870.00;;;;2061844;28;20246;-52
2022/09/16 03:49:58;;;;;;;1.53;0.77;;;;;21.70;99874.00;;;;2061715;28;20215;-52
2022/09/16 03:50:58;;;;;;;1.10;0.50;;;;;21.70;99873.00;;;;2070594;28;20210;-53
2022/09/16 03:51:59;;;;;;;1.60;0.57;;;;;21.70;99868.00;;;;2070825;28;20292;-52
2022/09/16 03:52:59;;;;;;;3.43;1.00;;;;;21.70;99869.00;;;;2074625;28;20213;-53
2022/09/16 03:53:59;;;;;;;2.50;0.93;;;;;21.70;99872.00;;;;2078871;28;20259;-53
2022/09/16 03:55:00;;;;;;;1.40;0.80;;;;;21.70;99870.00;;;;2076250;28;20213;-52
2022/09/16 03:56:00;;;;;;;2.17;0.80;;;;;21.70;99873.00;;;;2073764;28;20646;-52
2022/09/16 03:57:00;;;;;;;1.90;1.00;;;;;21.70;99867.00;;;;2078458;28;20697;-52
2022/09/16 03:58:01;;;;;;;2.37;0.80;;;;;21.70;99867.00;;;;2078082;28;20694;-52
2022/09/16 03:59:01;;;;;;;2.83;1.03;;;;;21.70;99869.00;;;;2076824;28;20201;-52
2022/09/16 04:00:06;;;;;;;3.00;0.80;;;;;21.70;99866.00;;;;2073592;28;20216;-52
2022/09/16 04:01:06;;;;;;;3.00;0.75;;;;;21.70;99866.00;;;;2078065;28;20626;-53
2022/09/16 04:02:06;;;;;;;1.80;0.97;;;;;21.70;99867.00;;;;2069524;28;20221;-52
2022/09/16 04:03:07;;;;;;;2.20;0.80;;;;;21.70;99872.00;;;;2075787;28;20221;-52
2022/09/16 04:04:07;;;;;;;3.63;0.97;;;;;21.70;99871.00;;;;2078713;28;20221;-53
2022/09/16 04:05:07;;;;;;;3.53;1.17;;;;;21.60;99864.00;;;;2078157;28;20221;-52
2022/09/16 04:06:08;;;;;;;4.50;1.00;;;;;21.70;99862.00;;;;2078639;28;20221;-53
2022/09/16 04:07:08;;;;;;;2.50;0.90;;;;;21.70;99863.00;;;;2078499;28;20222;-53
2022/09/16 04:08:09;;;;;;;2.80;1.20;;;;;21.70;99871.00;;;;2077706;28;20306;-52
2022/09/16 04:09:10;;;;;;;2.00;0.70;;;;;21.70;99866.00;;;;2078563;28;20627;-53
2022/09/16 04:10:11;;;;;;;1.65;0.93;;;;;21.70;99863.00;;;;2078829;28;20283;-53
2022/09/16 04:11:11;;;;;;;3.03;0.80;;;;;21.70;99862.00;;;;2078666;28;20221;-52
2022/09/16 04:12:12;;;;;;;3.47;1.20;;;;;21.70;99862.00;;;;2078757;28;20678;-52
2022/09/16 04:13:12;;;;;;;2.17;1.00;;;;;21.70;99865.00;;;;2078284;28;20869;-52
2022/09/16 04:14:13;;;;;;;1.73;0.87;;;;;21.60;99861.00;;;;2078611;28;20452;-52
2022/09/16 04:15:13;;;;;;;1.50;0.90;;;;;21.70;99862.00;;;;2078703;28;20221;-53
2022/09/16 04:16:18;;;;;;;3.70;1.00;;;;;21.70;99858.00;;;;2077688;28;20253;-53
2022/09/16 04:17:18;;;;;;;3.20;0.90;;;;;21.70;99861.00;;;;2077218;28;20209;-53
2022/09/16 04:18:18;;;;;;;1.47;0.73;;;;;21.70;99860.00;;;;2077818;28;20211;-53
2022/09/16 04:19:19;;;;;;;1.47;0.80;;;;;21.70;99852.00;;;;2078814;28;20301;-53
2022/09/16 04:20:19;;;;;;;2.53;0.97;;;;;21.70;99859.00;;;;2078618;28;20217;-53
2022/09/16 04:21:19;;;;;;;3.00;1.00;;;;;21.70;99866.00;;;;2078529;28;20621;-52
2022/09/16 04:22:20;;;;;;;2.27;0.83;;;;;21.70;99846.00;;;;2078436;28;20606;-53
2022/09/16 04:23:23;;;;;;;1.90;0.83;;;;;21.60;99864.00;;;;2078597;28;20852;-52
2022/09/16 04:24:23;;;;;;;1.92;0.82;;;;;21.60;99866.00;;;;2078581;28;20268;-53
2022/09/16 04:25:24;;;;;;;2.17;0.70;;;;;21.70;99863.00;;;;2078477;28;20507;-52
2022/09/16 04:26:24;;;;;;;1.83;1.20;;;;;21.70;99851.00;;;;2078384;28;20220;-52
2022/09/16 04:27:24;;;;;;;2.27;1.00;;;;;21.60;99856.00;;;;2075019;28;20855;-53
2022/09/16 04:28:25;;;;;;;1.87;0.90;;;;;21.60;99863.00;;;;2070104;28;20277;-52
2022/09/16 04:29:26;;;;;;;2.77;1.20;;;;;21.60;99862.00;;;;2070458;28;20293;-52
2022/09/16 04:30:27;;;;;;;2.47;1.00;;;;;21.70;99860.00;;;;2070410;28;20268;-53
2022/09/16 04:31:27;;;;;;;2.70;1.07;;;;;21.70;99856.00;;;;2072524;28;20260;-52
2022/09/16 04:32:27;;;;;;;3.20;1.03;;;;;21.70;99858.00;;;;2078519;28;20213;-53
2022/09/16 04:33:28;;;;;;;2.30;0.80;;;;;21.70;99859.00;;;;2078251;28;20244;-53
2022/09/16 04:34:31;;;;;;;2.80;1.17;;;;;21.70;99856.00;;;;2078466;28;20213;-53
2022/09/16 04:35:31;;;;;;;2.65;1.10;;;;;21.70;99855.00;;;;2078428;28;20214;-53
2022/09/16 04:36:32;;;;;;;2.00;1.00;;;;;21.70;99855.00;;;;2078302;28;20277;-52
2022/09/16 04:37:32;;;;;;;3.10;1.10;;;;;21.60;99861.00;;;;2077563;28;20284;-52
2022/09/16 04:38:36;;;;;;;4.53;1.30;;;;;21.60;99858.00;;;;2078475;28;20588;-52
2022/09/16 04:39:36;;;;;;;2.10;0.90;;;;;21.70;99862.00;;;;2078408;28;20213;-52
2022/09/16 04:40:38;;;;;;;2.13;1.00;;;;;21.70;99863.00;;;;2078543;28;20271;-53
2022/09/16 04:41:39;;;;;;;2.08;1.10;;;;;21.70;99855.00;;;;2078416;28;20240;-52
2022/09/16 04:42:39;;;;;;;3.23;0.87;;;;;21.70;99867.00;;;;2078496;28;20777;-53
2022/09/16 04:43:40;;;;;;;1.67;1.00;;;;;21.60;99863.00;;;;2078212;28;20248;-53
2022/09/16 04:44:40;;;;;;;2.10;0.97;;;;;21.60;99855.00;;;;2078576;28;20615;-53
2022/09/16 04:45:41;;;;;;;2.80;1.13;;;;;21.70;99861.00;;;;2078525;28;20510;-53
2022/09/16 04:46:41;;;;;;;3.33;1.10;;;;;21.70;99864.00;;;;2078514;28;20256;-53
2022/09/16 04:47:41;;;;;;;2.13;1.00;;;;;21.70;99864.00;;;;2074462;28;20275;-52
2022/09/16 04:48:42;;;;;;;2.40;1.30;;;;;21.70;99859.00;;;;2077702;28;20217;-52
2022/09/16 04:49:42;;;;;;;3.20;0.70;;;;;21.70;99862.00;;;;2069615;28;20218;-53
2022/09/16 04:50:42;;;;;;;1.93;0.80;;;;;21.70;99856.00;;;;2077841;28;20240;-52
2022/09/16 04:51:43;;;;;;;2.10;0.97;;;;;21.70;99862.00;;;;2078552;28;20673;-53
2022/09/16 04:52:43;;;;;;;3.07;1.23;;;;;21.70;99865.00;;;;2076906;28;20215;-52
2022/09/16 04:53:44;;;;;;;2.03;0.80;;;;;21.70;99873.00;;;;2080006;28;20213;-52
2022/09/16 04:54:44;;;;;;;1.70;0.70;;;;;21.70;99879.00;;;;2079766;28;20216;-52
2022/09/16 04:55:45;;;;;;;5.03;1.07;;;;;21.60;99883.00;;;;2079952;28;20682;-53
2022/09/16 04:56:45;;;;;;;2.30;1.20;;;;;21.70;99867.00;;;;2079850;28;20240;-53
2022/09/16 04:57:46;;;;;;;3.67;1.10;;;;;21.70;99863.00;;;;2078961;28;20216;-52
2022/09/16 04:58:50;;;;;;;3.50;1.17;;;;;21.70;99867.00;;;;2079641;28;20233;-52
2022/09/16 04:59:50;;;;;;;2.22;0.90;;;;;21.70;99870.00;;;;2079738;28;20244;-53
2022/09/16 05:00:51;;;;;;;1.80;0.80;;;;;21.60;99868.00;;;;2080024;28;20213;-53
2022/09/16 05:01:51;;;;;;;2.23;1.00;;;;;21.60;99862.00;;;;2079897;28;20244;-53
2022/09/16 05:02:53;;;;;;;1.93;0.97;;;;;21.60;99865.00;;;;2079780;28;20209;-52
2022/09/16 05:03:55;;;;;;;2.47;1.10;;;;;21.60;99867.00;;;;2079496;28;20213;-54
2022/09/16 05:04:56;;;;;;;2.95;1.20;;;;;21.60;99867.00;;;;2079670;28;20233;-53
2022/09/16 05:06:03;;;;;;;2.33;1.10;;;;;21.60;99870.00;;;;2079666;28;20202;-53
2022/09/16 05:07:04;;;;;;;4.47;1.38;;;;;21.60;99871.00;;;;2079938;28;20301;-52
2022/09/16 05:08:04;;;;;;;3.10;1.10;;;;;21.60;99866.00;;;;2078754;28;20614;-52
2022/09/16 05:09:04;;;;;;;2.33;0.90;;;;;21.60;99862.00;;;;2078204;28;20624;-53
2022/09/16 05:10:05;;;;;;;3.10;1.10;;;;;21.60;99868.00;;;;2079892;28;20600;-53
2022/09/16 05:11:10;;;;;;;3.07;1.30;;;;;21.60;99881.00;;;;2079872;28;20247;-53
2022/09/16 05:12:10;;;;;;;2.70;1.08;;;;;21.60;99860.00;;;;2078944;28;20580;-52
2022/09/16 05:13:11;;;;;;;4.27;1.50;;;;;21.60;99867.00;;;;2079035;28;20236;-52
2022/09/16 05:14:12;;;;;;;2.10;0.97;;;;;21.60;99862.00;;;;2079540;28;20213;-53
2022/09/16 05:15:13;;;;;;;2.58;0.90;;;;;21.60;99862.00;;;;2078666;28;20255;-53
2022/09/16 05:16:15;;;;;;;2.13;1.13;;;;;21.60;99856.00;;;;2079065;28;20221;-52
2022/09/16 05:17:15;;;;;;;2.85;1.20;;;;;21.60;99866.00;;;;2070413;28;20222;-53
2022/09/16 05:18:15;;;;;;;2.27;1.10;;;;;21.60;99855.00;;;;2070620;28;20238;-53
2022/09/16 05:19:15;;;;;;;3.00;0.97;;;;;21.60;99867.00;;;;2079807;28;20263;-52
2022/09/16 05:20:16;;;;;;;3.10;1.20;;;;;21.60;99877.00;;;;2079912;28;20210;-52
2022/09/16 05:21:18;;;;;;;3.80;1.00;;;;;21.60;99860.00;;;;2079814;28;20320;-53
2022/09/16 05:22:19;;;;;;;2.67;0.80;;;;;21.60;99863.00;;;;2079308;28;20252;-53
2022/09/16 05:23:19;;;;;;;1.73;0.90;;;;;21.60;99862.00;;;;2079478;28;20225;-53
2022/09/16 05:24:19;;;;;;;4.10;1.17;;;;;21.60;99860.00;;;;2078840;28;20225;-52
2022/09/16 05:25:20;;;;;;;2.23;1.07;;;;;21.60;99865.00;;;;2075143;28;20233;-53
2022/09/16 05:26:22;;;;;;;3.23;1.27;;;;;21.60;99859.00;;;;2071570;28;20304;-53
2022/09/16 05:27:22;;;;;;;2.75;0.77;;;;;21.60;99852.00;;;;2073609;28;20231;-53